»·PEaware :: N428EW KBFL-KMHV

N428EW :: KBFL-KMHV

FLIGHT INFORMATION

Flight Status: Arrived
Operator: Privately registered:
United States
More flights under this callsign
Pilot: Amine O. (2178)
Aircraft: CESSNA 170
(C170)
More flights by this aircraft type
Origin: KBFL Meadows
United States
Destination: KMHV Mojave
United States
More flights between these airports :: More routes between these airports
Route:
File this flight plan on PilotEdge
Remarks: CAT6
Altitude:
(Current/Filed)
3,500ft
Speed:
(Current/Filed)
130kts
Departed: 04-Nov-23 08:39 AM
Arrived: 04-Nov-23 09:15 AM
Distance/Time
Traveled:
50nm/0:36
Distance/Time
To Go:
Arrived

Flight Plot

Page will automatically refresh every two minutes.


Map Options




Map Legend


Flown Route
Filed Route
Departure Airport
Arrival Airport
Navaid (VOR, NDB)
Fix

Horizontal Profiles

Position Reports

Time Latitude Longitude Heading Altitude Ground
Speed
04-Nov-23 08:33 35.424545 -119.042670 181 470ft 0kts
04-Nov-23 08:34 35.425305 -119.043274 355 472ft 0kts
04-Nov-23 08:35 35.425619 -119.043361 172 472ft 6kts
04-Nov-23 08:36 35.425444 -119.044640 274 472ft 0kts
04-Nov-23 08:37 35.425633 -119.046041 289 475ft 20kts
04-Nov-23 08:38 35.438995 -119.062646 316 1116ft 84kts
04-Nov-23 08:39 35.445072 -119.044670 113 1892ft 86kts
04-Nov-23 08:40 35.428323 -119.022944 136 2649ft 88kts
04-Nov-23 08:41 35.408322 -119.004325 147 3297ft 91kts
04-Nov-23 08:42 35.386813 -118.986943 143 3636ft 95kts
04-Nov-23 08:43 35.370034 -118.961514 122 3795ft 99kts
04-Nov-23 08:44 35.357769 -118.938428 110 4239ft 90kts
04-Nov-23 08:45 35.341024 -118.915748 151 3729ft 95kts
04-Nov-23 08:46 35.319909 -118.893619 128 3149ft 101kts
04-Nov-23 08:47 35.307705 -118.870898 120 4105ft 79kts
04-Nov-23 08:48 35.298356 -118.846413 103 4866ft 81kts
04-Nov-23 08:49 35.291571 -118.819944 107 5638ft 83kts
04-Nov-23 08:50 35.283603 -118.793280 109 6374ft 86kts
04-Nov-23 08:51 35.277899 -118.765008 103 7030ft 85kts
04-Nov-23 08:52 35.271644 -118.736605 100 7613ft 88kts
04-Nov-23 08:53 35.267101 -118.707313 98 8125ft 88kts
04-Nov-23 08:54 35.259777 -118.678313 113 8679ft 91kts
04-Nov-23 08:55 35.248527 -118.650466 122 9278ft 92kts
04-Nov-23 08:56 35.236926 -118.622287 117 9771ft 93kts
04-Nov-23 08:57 35.224650 -118.594464 126 10320ft 94kts
04-Nov-23 08:58 35.208230 -118.565955 127 10238ft 127kts
04-Nov-23 08:59 35.187676 -118.531365 112 9882ft 108kts
04-Nov-23 09:00 35.176722 -118.496702 104 10053ft 106kts
04-Nov-23 09:01 35.163163 -118.462930 120 9660ft 110kts
04-Nov-23 09:02 35.149609 -118.429714 118 9352ft 110kts
04-Nov-23 09:03 35.136919 -118.396123 99 9094ft 111kts
04-Nov-23 09:04 35.126083 -118.361646 124 8883ft 109kts
04-Nov-23 09:05 35.108174 -118.331653 150 8153ft 110kts
04-Nov-23 09:06 35.103691 -118.324720 107 6696ft 107kts
04-Nov-23 09:07 35.096675 -118.290760 124 5781ft 96kts
04-Nov-23 09:08 35.081565 -118.263830 106 5438ft 95kts
04-Nov-23 09:09 35.077977 -118.231491 102 4992ft 97kts
04-Nov-23 09:10 35.074809 -118.199162 93 4475ft 89kts
04-Nov-23 09:11 35.073243 -118.170331 96 3817ft 80kts
04-Nov-23 09:12 35.072875 -118.143911 95 3334ft 75kts
04-Nov-23 09:13 35.059123 -118.142629 273 2799ft 65kts
04-Nov-23 09:14 35.058321 -118.149617 121 2753ft 0kts
04-Nov-23 09:15 35.057284 -118.150956 88 2755ft 9kts
04-Nov-23 09:16 35.057286 -118.150897 78 2754ft 0kts
04-Nov-23 09:17 35.057286 -118.150897 78 2754ft 0kts
04-Nov-23 09:18 35.057286 -118.150897 78 2754ft 0kts
04-Nov-23 09:19 35.057286 -118.150897 78 2754ft 0kts
04-Nov-23 09:20 35.057286 -118.150897 78 2754ft 0kts
04-Nov-23 09:21 35.057286 -118.150897 78 2754ft 0kts
04-Nov-23 09:22 35.057286 -118.150897 78 2754ft 0kts

Navigation Log

Ident Type
Flight plan parsing failed, navigation log unavailable